createdAt,value
2022-12-17T00:01:59.657Z,0.05
2022-12-17T00:03:56.716Z,0.05
2022-12-17T00:05:55.148Z,0.05
2022-12-17T00:07:54.980Z,0.05
2022-12-17T00:10:01.338Z,0.05
2022-12-17T00:11:54.836Z,0.05
2022-12-17T00:13:55.413Z,0.05
2022-12-17T00:15:55.065Z,0.05
2022-12-17T00:17:55.229Z,0.05
2022-12-17T00:19:56.343Z,0.05
2022-12-17T00:21:54.867Z,0.05
2022-12-17T00:23:55.270Z,0.05
2022-12-17T00:25:56.083Z,0.05
2022-12-17T00:27:55.197Z,0.05
2022-12-17T00:29:54.394Z,0.05
2022-12-17T00:31:55.304Z,0.05
2022-12-17T00:33:55.525Z,0.05
2022-12-17T00:35:54.900Z,0.05
2022-12-17T00:37:54.732Z,0.05
2022-12-17T00:39:59.092Z,0.05
2022-12-17T00:41:54.725Z,0.05
2022-12-17T00:43:54.689Z,0.05
2022-12-17T00:45:54.780Z,0.05
2022-12-17T00:47:54.874Z,0.05
2022-12-17T00:49:55.322Z,0.05
2022-12-17T00:51:53.957Z,0.05
2022-12-17T00:53:55.585Z,0.05
2022-12-17T00:55:54.570Z,0.05
2022-12-17T00:57:54.918Z,0.05
2022-12-17T00:59:54.865Z,12.45
2022-12-17T01:01:59.107Z,12.45
2022-12-17T01:03:55.902Z,12.45
2022-12-17T01:05:54.835Z,0.18
2022-12-17T01:07:54.937Z,0.18
2022-12-17T01:09:54.874Z,0.18
2022-12-17T01:11:56.390Z,0.18
2022-12-17T01:13:54.958Z,0.18
2022-12-17T01:15:54.801Z,0.18
2022-12-17T01:17:56.288Z,0.18
2022-12-17T01:19:54.142Z,0.18
2022-12-17T01:21:54.975Z,0.18
2022-12-17T01:23:53.666Z,0.18
2022-12-17T01:25:54.834Z,0.18
2022-12-17T01:27:54.774Z,0.18
2022-12-17T01:29:54.690Z,0.18
2022-12-17T01:31:57.743Z,0.18
2022-12-17T01:33:54.676Z,0.18
2022-12-17T01:35:53.875Z,0.18
2022-12-17T01:37:53.971Z,0.18
2022-12-17T01:39:54.323Z,0.18
2022-12-17T01:41:54.929Z,0.18
2022-12-17T01:43:53.878Z,0.18
2022-12-17T01:45:54.381Z,0.18
2022-12-17T01:47:56.323Z,0.18
2022-12-17T01:49:54.992Z,0.18
2022-12-17T01:51:54.180Z,0.18
2022-12-17T01:53:54.516Z,0.18
2022-12-17T01:55:54.831Z,0.18
2022-12-17T01:57:54.272Z,0.18
2022-12-17T01:59:54.426Z,0.18
2022-12-17T02:01:58.390Z,0.18
2022-12-17T02:03:56.533Z,0.18
2022-12-17T02:05:54.280Z,0.18
2022-12-17T02:07:55.161Z,0.18
2022-12-17T02:09:53.804Z,0.18
2022-12-17T02:11:54.733Z,18.88
2022-12-17T02:13:54.818Z,18.88
2022-12-17T02:15:53.807Z,18.88
2022-12-17T02:17:54.959Z,18.88
2022-12-17T02:19:54.663Z,18.88
2022-12-17T02:21:53.819Z,18.88
2022-12-17T02:23:54.038Z,18.88
2022-12-17T02:25:54.722Z,18.88
2022-12-17T02:27:54.082Z,18.88
2022-12-17T02:29:54.218Z,18.88
2022-12-17T02:31:55.117Z,18.88
2022-12-17T02:33:54.562Z,18.88
2022-12-17T02:35:54.315Z,18.88
2022-12-17T02:37:54.958Z,18.88
2022-12-17T02:39:53.846Z,18.88
2022-12-17T02:41:54.545Z,18.88
2022-12-17T02:43:55.250Z,18.88
2022-12-17T02:45:54.390Z,18.88
2022-12-17T02:47:55.021Z,18.88
2022-12-17T02:49:54.862Z,18.88
2022-12-17T02:51:54.233Z,18.88
2022-12-17T02:53:54.760Z,18.88
2022-12-17T02:55:53.938Z,18.88
2022-12-17T02:57:55.928Z,18.88
2022-12-17T02:59:54.174Z,18.88
2022-12-17T03:01:58.489Z,18.88
2022-12-17T03:04:01.732Z,18.88
2022-12-17T03:06:28.181Z,18.88
2022-12-17T03:07:54.548Z,18.88
2022-12-17T03:09:53.995Z,18.88
2022-12-17T03:11:54.542Z,18.88
2022-12-17T03:13:54.288Z,18.88
2022-12-17T03:15:54.598Z,18.88
2022-12-17T03:17:57.507Z,31.22
2022-12-17T03:19:55.077Z,31.22
2022-12-17T03:21:54.086Z,31.22
2022-12-17T03:23:54.735Z,0.18
2022-12-17T03:25:54.075Z,0.18
2022-12-17T03:27:54.401Z,0.18
2022-12-17T03:29:54.543Z,0.08
2022-12-17T03:31:57.434Z,0.08
2022-12-17T03:33:54.639Z,0.08
2022-12-17T03:35:54.542Z,0.08
2022-12-17T03:37:54.910Z,0.08
2022-12-17T03:39:54.576Z,0.08
2022-12-17T03:41:54.043Z,0.08
2022-12-17T03:43:55.499Z,0.08
2022-12-17T03:45:54.611Z,0.08
2022-12-17T03:47:54.560Z,0.08
2022-12-17T03:49:54.511Z,0.08
2022-12-17T03:51:54.703Z,0.08
2022-12-17T03:53:53.973Z,0.08
2022-12-17T03:55:54.553Z,0.08
2022-12-17T03:58:00.912Z,0.08
2022-12-17T03:59:53.681Z,0.08
2022-12-17T04:01:58.909Z,0.08
2022-12-17T04:03:57.229Z,0.08
2022-12-17T04:05:54.513Z,0.08
2022-12-17T04:07:54.155Z,0.08
2022-12-17T04:09:54.416Z,0.08
2022-12-17T04:11:54.883Z,0.08
2022-12-17T04:14:00.388Z,0.08
2022-12-17T04:15:54.697Z,0.08
2022-12-17T04:17:55.113Z,0.08
2022-12-17T04:19:54.096Z,0.08
2022-12-17T04:21:54.517Z,0.08
2022-12-17T04:23:53.825Z,0.08
2022-12-17T04:25:54.217Z,0.08
2022-12-17T04:27:55.045Z,0.08
2022-12-17T04:29:54.614Z,0.08
2022-12-17T04:31:55.909Z,0.08
2022-12-17T04:33:54.697Z,0.08
2022-12-17T04:35:54.751Z,0.08
2022-12-17T04:37:53.953Z,0.08
2022-12-17T04:39:54.413Z,0.08
2022-12-17T04:41:54.870Z,0.08
2022-12-17T04:43:58.178Z,0.08
2022-12-17T04:45:56.666Z,0.08
2022-12-17T04:47:55.389Z,0.08
2022-12-17T04:49:54.013Z,0.08
2022-12-17T04:51:54.353Z,0.08
2022-12-17T04:53:55.850Z,0.08
2022-12-17T04:55:54.104Z,0.08
2022-12-17T04:57:54.132Z,0.08
2022-12-17T04:59:54.313Z,0.08
2022-12-17T05:01:58.984Z,0.08
2022-12-17T05:04:03.304Z,0.08
2022-12-17T05:05:54.056Z,0.08
2022-12-17T05:07:54.264Z,0.08
2022-12-17T05:10:00.442Z,0.08
2022-12-17T05:11:54.031Z,0.08
2022-12-17T05:13:54.356Z,0.08
2022-12-17T05:15:59.734Z,0.08
2022-12-17T05:17:55.020Z,0.08
2022-12-17T05:19:54.152Z,0.08
2022-12-17T05:21:56.187Z,0.08
2022-12-17T05:23:54.997Z,0.08
2022-12-17T05:25:54.094Z,0.08
2022-12-17T05:27:54.289Z,0.08
2022-12-17T05:30:00.877Z,0.08
2022-12-17T05:31:55.661Z,0.08
2022-12-17T05:33:54.367Z,0.08
2022-12-17T05:35:54.562Z,0.08
2022-12-17T05:37:54.059Z,119.42
2022-12-17T05:39:54.420Z,119.42
2022-12-17T05:41:54.524Z,119.42
2022-12-17T05:43:54.581Z,119.42
2022-12-17T05:45:54.036Z,119.42
2022-12-17T05:47:55.138Z,119.42
2022-12-17T05:49:54.365Z,119.42
2022-12-17T05:52:01.037Z,119.42
2022-12-17T05:53:54.004Z,119.42
2022-12-17T05:55:54.281Z,119.42
2022-12-17T05:57:56.539Z,119.42
2022-12-17T05:59:54.557Z,119.42
2022-12-17T06:02:00.356Z,119.42
2022-12-17T06:03:56.349Z,119.42
2022-12-17T06:05:58.881Z,119.42
2022-12-17T06:07:55.111Z,119.42
2022-12-17T06:09:54.443Z,119.42
2022-12-17T06:11:57.983Z,119.42
2022-12-17T06:13:56.337Z,119.42
2022-12-17T06:15:54.309Z,119.42
2022-12-17T06:17:55.027Z,119.42
2022-12-17T06:19:58.797Z,119.42
2022-12-17T06:21:54.186Z,119.42
2022-12-17T06:23:54.769Z,119.42
2022-12-17T06:25:54.830Z,119.42
2022-12-17T06:27:53.943Z,119.42
2022-12-17T06:29:54.163Z,119.42
2022-12-17T06:32:00.886Z,119.42
2022-12-17T06:33:54.049Z,119.42
2022-12-17T06:35:54.128Z,119.42
2022-12-17T06:38:02.768Z,119.42
2022-12-17T06:39:54.122Z,119.42
2022-12-17T06:42:02.008Z,119.42
2022-12-17T06:43:57.743Z,119.42
2022-12-17T06:45:55.020Z,119.42
2022-12-17T06:47:54.703Z,119.42
2022-12-17T06:49:59.518Z,119.42
2022-12-17T06:51:54.461Z,119.42
2022-12-17T06:53:54.657Z,119.42
2022-12-17T06:55:54.094Z,119.42
2022-12-17T06:58:02.055Z,119.42
2022-12-17T06:59:54.409Z,119.42
2022-12-17T07:01:58.959Z,119.42
2022-12-17T07:04:00.841Z,119.42
2022-12-17T07:05:54.657Z,119.42
2022-12-17T07:07:54.372Z,119.42
2022-12-17T07:09:53.993Z,119.42
2022-12-17T07:11:56.382Z,119.42
2022-12-17T07:13:54.939Z,119.42
2022-12-17T07:15:54.040Z,119.42
2022-12-17T07:17:54.983Z,119.42
2022-12-17T07:20:03.272Z,119.42
2022-12-17T07:21:55.802Z,119.42
2022-12-17T07:23:54.726Z,119.42
2022-12-17T07:25:57.696Z,119.42
2022-12-17T07:27:54.420Z,119.42
2022-12-17T07:29:54.657Z,119.42
2022-12-17T07:32:01.026Z,119.42
2022-12-17T07:33:54.218Z,119.42
2022-12-17T07:35:54.615Z,119.42
2022-12-17T07:37:54.667Z,119.42
2022-12-17T07:39:54.421Z,119.42
2022-12-17T07:41:54.431Z,119.42
2022-12-17T07:44:00.874Z,119.42
2022-12-17T07:45:54.321Z,119.42
2022-12-17T07:47:54.781Z,119.42
2022-12-17T07:50:00.016Z,119.42
2022-12-17T07:51:54.686Z,119.42
2022-12-17T07:53:54.051Z,119.42
2022-12-17T07:56:00.542Z,119.42
2022-12-17T07:57:54.477Z,119.42
2022-12-17T07:59:53.797Z,119.42
2022-12-17T08:01:59.296Z,119.42
2022-12-17T08:03:57.511Z,119.42
2022-12-17T08:05:54.408Z,119.42
2022-12-17T08:08:01.800Z,119.42
2022-12-17T08:09:54.348Z,119.42
2022-12-17T08:11:54.592Z,119.42
2022-12-17T08:13:59.671Z,119.42
2022-12-17T08:15:54.003Z,119.42
2022-12-17T08:17:56.036Z,119.42
2022-12-17T08:19:57.016Z,119.42
2022-12-17T08:21:54.753Z,119.42
2022-12-17T08:23:54.199Z,119.42
2022-12-17T08:25:54.450Z,119.42
2022-12-17T08:27:56.012Z,119.42
2022-12-17T08:30:31.523Z,119.42
2022-12-17T08:31:55.101Z,119.42
2022-12-17T08:33:54.035Z,119.42
2022-12-17T08:36:00.455Z,119.42
2022-12-17T08:37:54.804Z,119.42
2022-12-17T08:39:54.253Z,119.42
2022-12-17T08:41:56.603Z,119.42
2022-12-17T08:43:57.497Z,119.42
2022-12-17T08:45:54.373Z,119.42
2022-12-17T08:47:59.071Z,119.42
2022-12-17T08:49:56.865Z,119.42
2022-12-17T08:51:54.016Z,119.42
2022-12-17T08:53:57.811Z,119.42
2022-12-17T08:55:53.845Z,119.42
2022-12-17T08:58:05.953Z,119.42
2022-12-17T08:59:55.865Z,119.42
2022-12-17T09:01:59.856Z,119.42
2022-12-17T09:03:57.038Z,119.42
2022-12-17T09:05:54.460Z,119.42
2022-12-17T09:07:58.203Z,119.42
2022-12-17T09:09:54.228Z,119.42
2022-12-17T09:11:54.418Z,119.42
2022-12-17T09:14:01.318Z,119.42
2022-12-17T09:15:54.116Z,119.42
2022-12-17T09:17:55.170Z,119.42
2022-12-17T09:19:55.580Z,119.42
2022-12-17T09:21:59.594Z,119.42
2022-12-17T09:23:53.969Z,119.42
2022-12-17T09:25:58.107Z,119.42
2022-12-17T09:27:54.408Z,119.42
2022-12-17T09:29:54.091Z,119.42
2022-12-17T09:32:00.193Z,119.42
2022-12-17T09:33:54.478Z,119.42
2022-12-17T09:35:53.942Z,119.42
2022-12-17T09:37:58.972Z,119.42
2022-12-17T09:39:54.508Z,119.42
2022-12-17T09:41:55.367Z,119.42
2022-12-17T09:44:00.582Z,119.42
2022-12-17T09:45:54.979Z,862.04
2022-12-17T09:47:54.498Z,862.04
2022-12-17T09:50:02.115Z,862.04
2022-12-17T09:51:54.688Z,0.26
2022-12-17T09:53:54.157Z,0.26
2022-12-17T09:55:57.922Z,0.12
2022-12-17T09:57:54.527Z,0.12
2022-12-17T09:59:54.175Z,0.12
2022-12-17T10:01:58.847Z,0.12
2022-12-17T10:03:58.510Z,0.08
2022-12-17T10:05:54.278Z,0.08
2022-12-17T10:08:00.574Z,0.08
2022-12-17T10:09:55.329Z,0.05
2022-12-17T10:11:57.565Z,0.05
2022-12-17T10:13:54.544Z,0.05
2022-12-17T10:15:54.901Z,0.05
2022-12-17T10:17:57.360Z,0.05
2022-12-17T10:19:54.438Z,0.05
2022-12-17T10:21:53.982Z,0.05
2022-12-17T10:23:58.874Z,0.05
2022-12-17T10:25:59.884Z,0.05
2022-12-17T10:27:54.729Z,0.05
2022-12-17T10:29:59.817Z,0.05
2022-12-17T10:31:55.286Z,0.05
2022-12-17T10:33:54.697Z,0.05
2022-12-17T10:36:01.819Z,0.05
2022-12-17T10:37:54.587Z,0.05
2022-12-17T10:39:53.947Z,0.05
2022-12-17T10:41:54.295Z,0.05
2022-12-17T10:43:54.629Z,0.05
2022-12-17T10:45:54.878Z,0.05
2022-12-17T10:47:54.820Z,0.05
2022-12-17T10:49:56.899Z,0.05
2022-12-17T10:51:54.810Z,0.05
2022-12-17T10:53:54.183Z,0.05
2022-12-17T10:55:57.148Z,0.05
2022-12-17T10:57:54.635Z,0.05
2022-12-17T10:59:54.132Z,0.05
2022-12-17T11:02:05.658Z,0.05
2022-12-17T11:03:58.417Z,0.05
2022-12-17T11:05:59.440Z,0.05
2022-12-17T11:08:01.360Z,0.05
2022-12-17T11:09:55.041Z,0.05
2022-12-17T11:12:07.113Z,0.05
2022-12-17T11:14:02.236Z,0.05
2022-12-17T11:15:54.539Z,0.05
2022-12-17T11:17:54.985Z,0.05
2022-12-17T11:19:59.224Z,0.05
2022-12-17T11:21:54.246Z,0.05
2022-12-17T11:23:54.592Z,0.05
2022-12-17T11:25:58.889Z,0.05
2022-12-17T11:27:54.305Z,0.05
2022-12-17T11:29:54.584Z,0.05
2022-12-17T11:32:01.259Z,0.05
2022-12-17T11:33:53.855Z,0.05
2022-12-17T11:35:54.226Z,0.05
2022-12-17T11:38:05.434Z,0.05
2022-12-17T11:39:54.430Z,0.05
2022-12-17T11:41:54.259Z,0.05
2022-12-17T11:44:02.254Z,0.05
2022-12-17T11:45:53.946Z,0.05
2022-12-17T11:47:59.273Z,0.05
2022-12-17T11:49:55.556Z,0.05
2022-12-17T11:51:54.387Z,12.45
2022-12-17T11:54:01.553Z,12.45
2022-12-17T11:55:54.292Z,12.45
2022-12-17T11:57:55.235Z,0.12
2022-12-17T12:00:04.811Z,0.12
2022-12-17T12:01:58.007Z,0.12
2022-12-17T12:03:55.994Z,0.08
2022-12-17T12:05:57.000Z,0.08
2022-12-17T12:07:54.570Z,0.08
2022-12-17T12:09:55.402Z,0.08
2022-12-17T12:11:55.139Z,0.05
2022-12-17T12:13:54.487Z,0.05
2022-12-17T12:15:54.937Z,0.05
2022-12-17T12:18:02.583Z,0.05
2022-12-17T12:19:55.884Z,0.05
2022-12-17T12:21:54.880Z,0.03
2022-12-17T12:24:00.883Z,0.03
2022-12-17T12:25:54.708Z,0.03
2022-12-17T12:27:54.597Z,0.05
2022-12-17T12:29:55.297Z,0.05
2022-12-17T12:31:55.186Z,0.05
2022-12-17T12:33:55.814Z,0.03
2022-12-17T12:35:54.457Z,0.03
2022-12-17T12:37:54.491Z,0.03
2022-12-17T12:39:55.287Z,0.03
2022-12-17T12:41:54.423Z,0.03
2022-12-17T12:43:54.744Z,0.03
2022-12-17T12:45:57.688Z,0.03
2022-12-17T12:47:55.873Z,0.03
2022-12-17T12:49:55.240Z,0.03
2022-12-17T12:51:57.063Z,0.03
2022-12-17T12:53:54.132Z,0.03
2022-12-17T12:55:54.564Z,0.03
2022-12-17T12:57:56.792Z,0.03
2022-12-17T12:59:54.517Z,0.03
2022-12-17T13:02:01.626Z,0.03
2022-12-17T13:04:03.486Z,0.03
2022-12-17T13:05:54.303Z,0.03
2022-12-17T13:07:54.482Z,0.03
2022-12-17T13:09:57.987Z,0.03
2022-12-17T13:11:54.123Z,0.03
2022-12-17T13:13:54.356Z,0.03
2022-12-17T13:15:56.084Z,0.03
2022-12-17T13:17:55.372Z,0.03
2022-12-17T13:19:55.088Z,0.03
2022-12-17T13:21:54.233Z,0.03
2022-12-17T13:23:54.653Z,0.03
2022-12-17T13:25:54.656Z,0.03
2022-12-17T13:27:54.037Z,0.03
2022-12-17T13:29:57.243Z,0.03
2022-12-17T13:31:54.988Z,0.03
2022-12-17T13:33:54.259Z,0.03
2022-12-17T13:35:55.790Z,0.03
2022-12-17T13:37:54.358Z,0.03
2022-12-17T13:39:55.205Z,0.03
2022-12-17T13:41:55.737Z,0.03
2022-12-17T13:43:54.564Z,0.03
2022-12-17T13:45:54.920Z,0.03
2022-12-17T13:47:55.671Z,0.03
2022-12-17T13:50:31.521Z,0.03
2022-12-17T13:52:34.139Z,0.03
2022-12-17T13:53:59.027Z,0.03
2022-12-17T13:55:54.561Z,0.03
2022-12-17T13:57:54.799Z,0.03
2022-12-17T14:00:05.286Z,0.03
2022-12-17T14:01:58.482Z,0.03
2022-12-17T14:04:31.004Z,0.03
2022-12-17T14:06:04.506Z,0.03
2022-12-17T14:07:54.397Z,0.03
2022-12-17T14:09:54.942Z,0.03
2022-12-17T14:12:02.955Z,0.03
2022-12-17T14:13:54.548Z,0.03
2022-12-17T14:15:54.747Z,0.03
2022-12-17T14:17:58.869Z,0.03
2022-12-17T14:19:55.231Z,0.03
2022-12-17T14:21:54.530Z,0.03
2022-12-17T14:23:59.222Z,0.03
2022-12-17T14:25:54.063Z,0.03
2022-12-17T14:27:54.343Z,0.03
2022-12-17T14:29:57.965Z,0.03
2022-12-17T14:32:33.285Z,0.03
2022-12-17T14:33:54.448Z,0.03
2022-12-17T14:35:57.518Z,0.03
2022-12-17T14:37:55.277Z,0.03
2022-12-17T14:40:19.024Z,0.03
2022-12-17T14:41:54.760Z,0.03
2022-12-17T14:43:54.879Z,0.03
2022-12-17T14:46:01.678Z,0.03
2022-12-17T14:47:54.939Z,0.03
2022-12-17T14:49:55.971Z,0.03
2022-12-17T14:51:54.102Z,0.03
2022-12-17T14:53:54.460Z,0.03
2022-12-17T14:55:55.708Z,0.03
2022-12-17T14:57:54.132Z,0.03
2022-12-17T14:59:55.068Z,0.03
2022-12-17T15:02:02.938Z,0.03
2022-12-17T15:03:57.117Z,0.03
2022-12-17T15:05:54.498Z,0.03
2022-12-17T15:08:02.753Z,0.03
2022-12-17T15:09:55.351Z,0.03
2022-12-17T15:11:54.481Z,0.03
2022-12-17T15:13:56.541Z,0.03
2022-12-17T15:15:53.925Z,0.03
2022-12-17T15:17:55.084Z,0.03
2022-12-17T15:19:56.492Z,0.03
2022-12-17T15:21:53.988Z,0.03
2022-12-17T15:23:54.089Z,0.03
2022-12-17T15:25:58.351Z,0.03
2022-12-17T15:27:53.932Z,0.03
2022-12-17T15:29:54.771Z,0.03
2022-12-17T15:32:00.752Z,0.03
2022-12-17T15:33:54.848Z,0.03
2022-12-17T15:35:53.958Z,0.03
2022-12-17T15:37:59.683Z,0.03
2022-12-17T15:39:55.432Z,0.03
2022-12-17T15:41:54.703Z,0.03
2022-12-17T15:44:02.176Z,0.03
2022-12-17T15:45:53.915Z,0.03
2022-12-17T15:47:55.101Z,0.03
2022-12-17T15:49:58.612Z,0.03
2022-12-17T15:51:57.922Z,0.03
2022-12-17T15:53:54.321Z,0.03
2022-12-17T15:55:54.731Z,0.03
2022-12-17T15:58:01.919Z,0.03
2022-12-17T15:59:54.513Z,0.03
2022-12-17T16:01:57.759Z,0.03
2022-12-17T16:03:57.136Z,0.03
2022-12-17T16:06:04.596Z,0.03
2022-12-17T16:07:53.884Z,0.03
2022-12-17T16:09:57.024Z,0.03
2022-12-17T16:11:58.469Z,0.03
2022-12-17T16:13:54.748Z,0.03
2022-12-17T16:15:54.259Z,0.03
2022-12-17T16:17:57.498Z,0.03
2022-12-17T16:19:55.442Z,0.03
2022-12-17T16:21:58.462Z,0.03
2022-12-17T16:23:54.693Z,0.03
2022-12-17T16:25:54.146Z,0.03
2022-12-17T16:28:01.024Z,0.03
2022-12-17T16:29:54.247Z,0.03
2022-12-17T16:31:54.981Z,0.03
2022-12-17T16:33:58.479Z,0.03
2022-12-17T16:35:54.605Z,0.03
2022-12-17T16:37:54.056Z,0.03
2022-12-17T16:39:59.685Z,0.03
2022-12-17T16:41:55.055Z,0.03
2022-12-17T16:43:54.066Z,0.03
2022-12-17T16:45:54.631Z,0.03
2022-12-17T16:47:57.943Z,0.03
2022-12-17T16:49:54.900Z,0.03
2022-12-17T16:52:02.813Z,0.03
2022-12-17T16:53:54.733Z,0.03
2022-12-17T16:55:53.958Z,0.03
2022-12-17T16:57:59.303Z,0.03
2022-12-17T16:59:55.366Z,0.03
2022-12-17T17:01:58.190Z,0.03
2022-12-17T17:04:02.670Z,0.03
2022-12-17T17:05:54.832Z,0.03
2022-12-17T17:08:01.802Z,0.03
2022-12-17T17:09:54.971Z,0.03
2022-12-17T17:12:02.334Z,0.03
2022-12-17T17:13:53.928Z,0.03
2022-12-17T17:15:54.664Z,0.03
2022-12-17T17:18:35.966Z,0.03
2022-12-17T17:19:55.214Z,0.03
2022-12-17T17:21:54.467Z,0.03
2022-12-17T17:23:54.779Z,3.27
2022-12-17T17:26:28.272Z,3.27
2022-12-17T17:27:54.331Z,3.27
2022-12-17T17:29:59.823Z,0.08
2022-12-17T17:32:36.781Z,0.08
2022-12-17T17:34:03.900Z,0.08
2022-12-17T17:35:54.320Z,0.05
2022-12-17T17:37:56.796Z,0.05
2022-12-17T17:39:54.765Z,0.05
2022-12-17T17:41:54.333Z,0.05
2022-12-17T17:44:00.525Z,0.05
2022-12-17T17:45:54.252Z,0.05
2022-12-17T17:47:55.008Z,0.05
2022-12-17T17:49:55.103Z,0.05
2022-12-17T17:52:33.397Z,0.05
2022-12-17T17:54:03.704Z,0.05
2022-12-17T17:55:56.279Z,0.05
2022-12-17T17:57:54.293Z,0.05
2022-12-17T17:59:56.947Z,0.05
2022-12-17T18:01:58.233Z,0.05
2022-12-17T18:03:57.996Z,0.05
2022-12-17T18:05:59.685Z,0.05
2022-12-17T18:08:31.124Z,0.05
2022-12-17T18:09:55.059Z,0.05
2022-12-17T18:11:57.372Z,0.05
2022-12-17T18:13:54.422Z,0.05
2022-12-17T18:16:22.197Z,0.05
2022-12-17T18:17:55.704Z,0.05
2022-12-17T18:19:56.939Z,0.05
2022-12-17T18:21:54.500Z,0.05
2022-12-17T18:23:55.456Z,0.05
2022-12-17T18:26:00.358Z,0.05
2022-12-17T18:27:54.191Z,0.05
2022-12-17T18:29:55.077Z,0.05
2022-12-17T18:32:03.020Z,0.05
2022-12-17T18:33:54.162Z,0.05
2022-12-17T18:35:54.696Z,0.05
2022-12-17T18:37:54.493Z,0.05
2022-12-17T18:39:55.559Z,0.05
2022-12-17T18:42:01.565Z,0.05
2022-12-17T18:43:54.318Z,0.05
2022-12-17T18:45:56.736Z,0.05
2022-12-17T18:47:55.352Z,0.05
2022-12-17T18:49:55.001Z,0.05
2022-12-17T18:51:59.314Z,0.05
2022-12-17T18:53:58.959Z,0.05
2022-12-17T18:55:54.581Z,0.05
2022-12-17T18:58:32.388Z,0.05
2022-12-17T19:00:07.716Z,3.95
2022-12-17T19:02:02.034Z,3.95
2022-12-17T19:03:56.020Z,3.95
2022-12-17T19:05:59.452Z,3.95
2022-12-17T19:07:54.404Z,3.95
2022-12-17T19:09:55.182Z,3.95
2022-12-17T19:11:55.136Z,3.95
2022-12-17T19:13:54.229Z,3.95
2022-12-17T19:15:54.649Z,3.95
2022-12-17T19:17:55.411Z,3.95
2022-12-17T19:19:54.513Z,3.95
2022-12-17T19:21:54.043Z,3.95
2022-12-17T19:23:56.296Z,3.95
2022-12-17T19:25:53.827Z,3.95
2022-12-17T19:27:54.323Z,3.95
2022-12-17T19:30:01.099Z,3.95
2022-12-17T19:31:55.078Z,3.95
2022-12-17T19:33:54.738Z,3.95
2022-12-17T19:35:54.697Z,3.95
2022-12-17T19:37:59.318Z,3.95
2022-12-17T19:39:54.879Z,3.95
2022-12-17T19:41:54.816Z,3.95
2022-12-17T19:43:56.784Z,3.95
2022-12-17T19:45:55.048Z,3.95
2022-12-17T19:47:55.012Z,3.95
2022-12-17T19:49:56.789Z,3.95
2022-12-17T19:51:54.533Z,3.95
2022-12-17T19:53:54.728Z,3.95
2022-12-17T19:56:01.732Z,3.95
2022-12-17T19:57:54.333Z,3.95
2022-12-17T19:59:55.020Z,3.95
2022-12-17T20:01:57.498Z,3.95
2022-12-17T20:04:03.649Z,3.95
2022-12-17T20:05:53.710Z,3.95
2022-12-17T20:07:54.285Z,3.95
2022-12-17T20:09:58.165Z,3.95
2022-12-17T20:11:54.702Z,3.95
2022-12-17T20:13:54.562Z,3.95
2022-12-17T20:15:54.445Z,3.95
2022-12-17T20:17:55.772Z,3.95
2022-12-17T20:19:54.858Z,3.95
2022-12-17T20:21:54.174Z,3.95
2022-12-17T20:23:54.613Z,3.95
2022-12-17T20:26:01.620Z,3.95
2022-12-17T20:27:54.011Z,3.95
2022-12-17T20:29:54.951Z,3.95
2022-12-17T20:32:01.039Z,3.95
2022-12-17T20:33:54.454Z,3.95
2022-12-17T20:35:54.490Z,3.95
2022-12-17T20:37:54.763Z,3.95
2022-12-17T20:40:01.265Z,3.95
2022-12-17T20:41:54.223Z,3.95
2022-12-17T20:43:54.371Z,3.95
2022-12-17T20:46:01.247Z,3.95
2022-12-17T20:47:55.389Z,3.95
2022-12-17T20:49:54.491Z,3.95
2022-12-17T20:51:54.500Z,3.95
2022-12-17T20:53:54.153Z,3.95
2022-12-17T20:55:54.437Z,3.95
2022-12-17T20:57:54.629Z,3.95
2022-12-17T20:59:55.334Z,3.95
2022-12-17T21:02:07.140Z,3.95
2022-12-17T21:03:56.499Z,3.95
2022-12-17T21:05:54.139Z,3.95
2022-12-17T21:07:54.553Z,3.95
2022-12-17T21:09:58.257Z,3.95
2022-12-17T21:11:54.454Z,3.95
2022-12-17T21:13:54.932Z,3.95
2022-12-17T21:16:03.878Z,3.95
2022-12-17T21:17:55.267Z,3.95
2022-12-17T21:19:56.018Z,3.95
2022-12-17T21:22:01.710Z,3.95
2022-12-17T21:23:56.508Z,3.95
2022-12-17T21:25:55.011Z,3.95
2022-12-17T21:28:01.109Z,3.95
2022-12-17T21:29:54.642Z,3.95
2022-12-17T21:32:02.031Z,3.95
2022-12-17T21:34:02.540Z,3.95
2022-12-17T21:35:55.480Z,3.95
2022-12-17T21:38:06.554Z,3.95
2022-12-17T21:39:59.597Z,3.95
2022-12-17T21:41:56.371Z,3.95
2022-12-17T21:43:54.588Z,3.95
2022-12-17T21:45:56.655Z,3.95
2022-12-17T21:47:58.195Z,3.95
2022-12-17T21:50:02.830Z,3.95
2022-12-17T21:51:55.587Z,3.95
2022-12-17T21:53:55.135Z,3.95
2022-12-17T21:56:02.080Z,3.95
2022-12-17T21:57:55.032Z,3.95
2022-12-17T21:59:55.041Z,3.95
2022-12-17T22:02:05.544Z,3.95
2022-12-17T22:03:56.620Z,3.95
2022-12-17T22:06:01.678Z,3.95
2022-12-17T22:08:29.459Z,3.95
2022-12-17T22:11:14.685Z,3.95
2022-12-17T22:12:44.560Z,3.95
2022-12-17T22:13:53.989Z,3.95
2022-12-17T22:16:18.379Z,3.95
2022-12-17T22:17:55.838Z,3.95
2022-12-17T22:19:56.430Z,3.95
2022-12-17T22:21:55.564Z,3.95
2022-12-17T22:23:57.701Z,3.95
2022-12-17T22:26:04.207Z,3.95
2022-12-17T22:27:54.828Z,3.95
2022-12-17T22:29:56.425Z,3.95
2022-12-17T22:32:00.849Z,3.95
2022-12-17T22:45:10.034Z,3.95
2022-12-17T22:46:53.736Z,3.95
2022-12-17T22:47:54.657Z,3.95
2022-12-17T22:49:56.934Z,3.95
2022-12-17T22:52:41.331Z,3.95
2022-12-17T22:54:01.726Z,3.95
2022-12-17T22:55:58.806Z,3.95
2022-12-17T22:59:08.345Z,3.95
2022-12-17T22:59:54.378Z,3.95
2022-12-17T23:02:08.592Z,3.95
2022-12-17T23:03:57.210Z,3.95
2022-12-17T23:05:55.116Z,3.95
2022-12-17T23:07:54.761Z,3.95
2022-12-17T23:09:54.615Z,3.95
2022-12-17T23:11:54.914Z,3.95
2022-12-17T23:13:54.037Z,3.95
2022-12-17T23:15:54.413Z,3.95
2022-12-17T23:17:57.978Z,3.95
2022-12-17T23:19:54.072Z,3.95
2022-12-17T23:21:54.545Z,3.95
2022-12-17T23:24:00.880Z,3.95
2022-12-17T23:25:54.954Z,3.95
2022-12-17T23:27:54.115Z,3.95
2022-12-17T23:29:54.187Z,3.95
2022-12-17T23:31:55.559Z,3.95
2022-12-17T23:33:54.458Z,3.95
2022-12-17T23:35:54.691Z,3.95
2022-12-17T23:38:01.929Z,3.95
2022-12-17T23:39:54.644Z,3.95
2022-12-17T23:41:54.171Z,3.95
2022-12-17T23:44:02.858Z,3.95
2022-12-17T23:45:54.792Z,3.95
2022-12-17T23:47:54.727Z,3.95
2022-12-17T23:49:58.521Z,3.95
2022-12-17T23:51:54.647Z,3.95
2022-12-17T23:53:54.687Z,3.95
2022-12-17T23:55:54.714Z,3.95
2022-12-17T23:57:54.932Z,3.95
2022-12-17T23:59:54.474Z,3.95
